Time;durP1;ratioP1;P1;durP2;ratioP2;P2;SDS_P1;SDS_P2;PMS_P1;PMS_P2;Temp;Humidity;BMP_temperature;BMP_pressure;BME280_temperature;BME280_humidity;BME280_pressure;Samples;Min_cycle;Max_cycle;Signal;HPM_P1;HPM_P2
2023/12/24 00:01:11;;;;;;;7.28;1.83;;;10.40;90.90;;;;;;5051250;28;20021;-35
2023/12/24 00:03:38;;;;;;;7.10;2.10;;;10.40;90.90;;;;;;5051445;28;20343;-38
2023/12/24 00:06:05;;;;;;;6.32;2.22;;;10.40;90.80;;;;;;5051242;28;20021;-43
2023/12/24 00:08:31;;;;;;;6.10;1.70;;;10.40;90.90;;;;;;5051247;28;20021;-36
2023/12/24 00:10:57;;;;;;;6.93;1.75;;;10.40;90.90;;;;;;5051432;28;20025;-36
2023/12/24 00:13:23;;;;;;;5.95;1.58;;;10.40;90.80;;;;;;5051070;28;20100;-36
2023/12/24 00:15:49;;;;;;;6.97;1.75;;;10.50;90.90;;;;;;5051256;28;20048;-34
2023/12/24 00:18:14;;;;;;;7.07;1.75;;;10.40;90.80;;;;;;5051084;28;20455;-36
2023/12/24 00:20:40;;;;;;;4.20;1.50;;;10.50;90.80;;;;;;5049992;28;20120;-37
2023/12/24 00:23:07;;;;;;;4.70;1.73;;;10.50;90.80;;;;;;5051189;28;20021;-36
2023/12/24 00:25:34;;;;;;;5.68;1.70;;;10.50;90.80;;;;;;5051120;28;20070;-35
2023/12/24 00:28:00;;;;;;;4.97;1.65;;;10.50;90.70;;;;;;5051480;28;20029;-36
2023/12/24 00:30:29;;;;;;;5.22;1.73;;;10.50;90.60;;;;;;5051271;28;20060;-37
2023/12/24 00:32:56;;;;;;;4.80;1.70;;;10.50;90.60;;;;;;5051024;28;20052;-37
2023/12/24 00:35:22;;;;;;;5.70;1.50;;;10.50;90.60;;;;;;5051076;28;20064;-34
2023/12/24 00:37:48;;;;;;;8.55;1.90;;;10.50;90.50;;;;;;5051053;28;20025;-37
2023/12/24 00:40:14;;;;;;;6.82;1.60;;;10.50;90.50;;;;;;5051049;28;20029;-37
2023/12/24 00:42:41;;;;;;;7.53;1.42;;;10.50;90.40;;;;;;5051079;28;20029;-35
2023/12/24 00:45:08;;;;;;;9.55;1.65;;;10.50;90.40;;;;;;5051229;28;20044;-38
2023/12/24 00:47:34;;;;;;;7.50;1.40;;;10.50;90.30;;;;;;5051237;28;20489;-39
2023/12/24 00:49:59;;;;;;;6.60;1.52;;;10.50;90.30;;;;;;5054606;28;20036;-38
2023/12/24 00:52:25;;;;;;;5.63;1.50;;;10.60;90.30;;;;;;5055126;28;20025;-37
2023/12/24 00:54:50;;;;;;;4.80;2.00;;;10.60;90.20;;;;;;5054612;28;20029;-36
2023/12/24 00:57:16;;;;;;;4.32;1.42;;;10.60;90.20;;;;;;5054629;28;20381;-37
2023/12/24 00:59:41;;;;;;;5.57;1.38;;;10.50;90.10;;;;;;5054463;28;20095;-38
2023/12/24 01:02:07;;;;;;;3.33;1.30;;;10.60;90.10;;;;;;5055078;28;20100;-39
2023/12/24 01:04:32;;;;;;;6.25;1.60;;;10.60;89.90;;;;;;5054236;28;20021;-36
2023/12/24 01:06:59;;;;;;;5.65;1.40;;;10.60;90.00;;;;;;5054417;28;20428;-35
2023/12/24 01:09:25;;;;;;;5.85;1.80;;;10.50;89.90;;;;;;5054562;28;20025;-37
2023/12/24 01:11:51;;;;;;;7.40;1.40;;;10.50;89.90;;;;;;5053239;28;20025;-37
2023/12/24 01:14:17;;;;;;;5.68;1.40;;;10.50;89.70;;;;;;5054171;28;20029;-40
2023/12/24 01:16:42;;;;;;;6.72;1.95;;;10.60;89.60;;;;;;5054309;28;20374;-37
2023/12/24 01:19:08;;;;;;;5.05;1.17;;;10.50;89.30;;;;;;5054087;28;20037;-39
2023/12/24 01:21:34;;;;;;;6.93;1.58;;;10.50;89.40;;;;;;5054088;28;20063;-36
2023/12/24 01:23:59;;;;;;;4.82;1.40;;;10.50;89.30;;;;;;5052663;28;20021;-36
2023/12/24 01:26:25;;;;;;;4.22;1.42;;;10.50;89.30;;;;;;5054258;28;20017;-37
2023/12/24 01:28:51;;;;;;;6.72;1.83;;;10.50;89.30;;;;;;5054033;28;20443;-36
2023/12/24 01:31:16;;;;;;;3.55;1.30;;;10.50;89.20;;;;;;5053930;28;20032;-37
2023/12/24 01:33:42;;;;;;;3.42;1.42;;;10.50;89.30;;;;;;5053727;28;20064;-37
2023/12/24 01:36:08;;;;;;;4.57;1.60;;;10.50;89.30;;;;;;5053681;28;20066;-37
2023/12/24 01:38:33;;;;;;;3.58;2.25;;;10.50;89.40;;;;;;5053692;28;20025;-37
2023/12/24 01:40:59;;;;;;;4.78;1.52;;;10.50;89.50;;;;;;5053497;28;20029;-40
2023/12/24 01:43:25;;;;;;;5.45;1.50;;;10.50;89.80;;;;;;5054058;28;20017;-38
2023/12/24 01:45:51;;;;;;;4.55;1.77;;;10.50;90.00;;;;;;5053607;28;20083;-36
2023/12/24 01:48:17;;;;;;;4.43;1.38;;;10.50;90.10;;;;;;5053597;28;20033;-36
2023/12/24 01:50:47;;;;;;;6.65;1.85;;;10.40;90.20;;;;;;5053323;28;20535;-36
2023/12/24 01:53:15;;;;;;;6.40;1.90;;;10.40;90.30;;;;;;5053708;28;20059;-36
2023/12/24 01:55:42;;;;;;;2.83;1.90;;;10.40;90.40;;;;;;5053197;28;20021;-37
2023/12/24 01:58:08;;;;;;;6.15;2.17;;;10.30;90.60;;;;;;5053539;28;20047;-37
2023/12/24 02:00:33;;;;;;;7.15;2.10;;;10.30;90.70;;;;;;5052760;28;20014;-35
2023/12/24 02:03:00;;;;;;;6.32;2.30;;;10.30;90.90;;;;;;5053144;28;20025;-37
2023/12/24 02:05:27;;;;;;;6.97;2.00;;;10.20;90.90;;;;;;5053191;28;20384;-36
2023/12/24 02:07:55;;;;;;;3.90;1.67;;;10.20;91.20;;;;;;5053217;28;20094;-36
2023/12/24 02:10:20;;;;;;;2.85;1.52;;;10.10;91.30;;;;;;5053226;28;20025;-39
2023/12/24 02:12:46;;;;;;;6.00;1.92;;;10.10;91.40;;;;;;5053270;28;20601;-36
2023/12/24 02:15:12;;;;;;;5.45;2.40;;;10.10;91.60;;;;;;5053019;28;20061;-36
2023/12/24 02:17:39;;;;;;;7.18;2.10;;;10.00;91.70;;;;;;5053266;28;20017;-37
2023/12/24 02:20:05;;;;;;;5.93;1.80;;;10.00;91.80;;;;;;5051824;28;20021;-37
2023/12/24 02:22:31;;;;;;;7.80;2.65;;;9.90;91.90;;;;;;5053037;28;20130;-36
2023/12/24 02:24:57;;;;;;;7.20;2.28;;;9.90;92.10;;;;;;5053145;28;20545;-37
2023/12/24 02:27:33;;;;;;;5.82;2.08;;;9.90;92.30;;;;;;5052533;28;20477;-36
2023/12/24 02:30:07;;;;;;;11.05;3.42;;;9.80;92.40;;;;;;5052673;28;20029;-37
2023/12/24 02:32:35;;;;;;;8.32;2.80;;;9.80;92.60;;;;;;5052637;28;20049;-37
2023/12/24 02:35:03;;;;;;;12.25;3.67;;;9.70;92.90;;;;;;5052792;28;20029;-36
2023/12/24 02:37:29;;;;;;;7.25;3.05;;;9.70;93.00;;;;;;5052591;28;20436;-36
2023/12/24 02:39:56;;;;;;;7.43;2.67;;;9.70;93.10;;;;;;5052417;28;20021;-35
2023/12/24 02:42:22;;;;;;;5.28;2.63;;;9.70;93.10;;;;;;5052420;28;20086;-36
2023/12/24 02:44:47;;;;;;;5.80;3.40;;;9.70;93.20;;;;;;5052689;28;20107;-37
2023/12/24 02:47:13;;;;;;;6.03;3.38;;;9.70;93.30;;;;;;5052502;28;20389;-36
2023/12/24 02:49:38;;;;;;;7.97;3.78;;;9.70;93.40;;;;;;5052310;28;20033;-37
2023/12/24 02:52:04;;;;;;;9.50;3.55;;;9.70;93.40;;;;;;5052250;28;20036;-36
2023/12/24 02:54:30;;;;;;;10.07;3.75;;;9.70;93.50;;;;;;5052410;28;20105;-36
2023/12/24 02:56:55;;;;;;;8.02;3.90;;;9.80;93.60;;;;;;5052242;28;20036;-36
2023/12/24 02:59:21;;;;;;;11.63;4.13;;;9.80;93.60;;;;;;5052130;28;20017;-37
2023/12/24 03:01:46;;;;;;;7.50;3.22;;;9.70;93.70;;;;;;5052107;28;20028;-37
2023/12/24 03:04:12;;;;;;;10.93;4.78;;;9.70;93.70;;;;;;5052167;28;20436;-36
2023/12/24 03:06:37;;;;;;;9.82;4.47;;;9.80;94.00;;;;;;5052091;28;20059;-37
2023/12/24 03:09:03;;;;;;;11.90;4.15;;;9.80;93.90;;;;;;5052063;28;20009;-36
2023/12/24 03:11:28;;;;;;;6.85;4.15;;;9.80;93.90;;;;;;5051301;28;20055;-36
2023/12/24 03:13:54;;;;;;;10.98;4.90;;;9.80;94.00;;;;;;5051857;28;20059;-34
2023/12/24 03:16:20;;;;;;;12.45;5.43;;;9.80;94.10;;;;;;5051966;28;20484;-36
2023/12/24 03:18:45;;;;;;;11.20;5.18;;;9.80;94.30;;;;;;5051791;28;20071;-36
2023/12/24 03:21:11;;;;;;;8.30;4.68;;;9.80;94.30;;;;;;5051803;28;20021;-37
2023/12/24 03:23:37;;;;;;;10.10;5.15;;;9.80;94.30;;;;;;5051716;28;20030;-36
2023/12/24 03:26:03;;;;;;;9.20;4.40;;;9.80;94.50;;;;;;5051893;28;20025;-36
2023/12/24 03:28:28;;;;;;;10.27;4.32;;;9.80;94.50;;;;;;5051813;28;20143;-36
2023/12/24 03:30:54;;;;;;;8.73;4.53;;;9.80;94.50;;;;;;5051596;28;20025;-36
2023/12/24 03:33:20;;;;;;;7.82;4.10;;;9.80;94.60;;;;;;5051567;28;20052;-37
2023/12/24 03:35:45;;;;;;;8.02;3.75;;;9.90;94.70;;;;;;5051698;28;20427;-38
2023/12/24 03:38:11;;;;;;;6.03;3.47;;;9.90;94.80;;;;;;5051732;28;20412;-37
2023/12/24 03:40:36;;;;;;;7.72;3.78;;;9.90;94.70;;;;;;5051610;28;20028;-36
2023/12/24 03:43:02;;;;;;;5.85;3.28;;;9.90;94.70;;;;;;5051721;28;20156;-36
2023/12/24 03:45:28;;;;;;;7.22;3.40;;;9.90;94.70;;;;;;5051582;28;20056;-37
2023/12/24 03:47:53;;;;;;;9.23;3.28;;;9.90;95.00;;;;;;5051658;28;20053;-36
2023/12/24 03:50:19;;;;;;;6.93;4.20;;;9.90;94.90;;;;;;5051463;28;20024;-38
2023/12/24 03:52:44;;;;;;;9.10;4.10;;;9.90;95.00;;;;;;5051550;28;20028;-35
2023/12/24 03:55:10;;;;;;;5.55;3.30;;;10.00;95.00;;;;;;5051493;28;20017;-37
2023/12/24 03:57:35;;;;;;;3.85;3.40;;;10.00;95.10;;;;;;5050081;28;20029;-37
2023/12/24 04:00:01;;;;;;;8.00;3.50;;;10.00;95.10;;;;;;5051458;28;20017;-37
2023/12/24 04:02:27;;;;;;;6.25;3.20;;;10.00;95.20;;;;;;5050153;28;20017;-37
2023/12/24 04:04:52;;;;;;;4.10;2.55;;;10.00;95.20;;;;;;5051327;28;20522;-37
2023/12/24 04:07:18;;;;;;;3.70;2.30;;;10.00;95.20;;;;;;5051453;28;20029;-37
2023/12/24 04:09:43;;;;;;;2.33;2.13;;;10.00;95.20;;;;;;5051183;28;20022;-36
2023/12/24 04:12:09;;;;;;;4.57;2.22;;;10.00;95.10;;;;;;5051458;28;20057;-37
2023/12/24 04:14:39;;;;;;;2.78;2.00;;;10.10;95.20;;;;;;5051171;28;20067;-35
2023/12/24 04:17:05;;;;;;;3.20;1.92;;;10.10;95.20;;;;;;5051258;28;20469;-40
2023/12/24 04:19:31;;;;;;;2.70;2.25;;;10.10;95.30;;;;;;5051076;28;20021;-36
2023/12/24 04:21:56;;;;;;;3.15;1.92;;;10.10;95.30;;;;;;5051278;28;20493;-39
2023/12/24 04:24:22;;;;;;;2.53;1.58;;;10.10;95.30;;;;;;5054302;28;20032;-36
2023/12/24 04:26:48;;;;;;;2.42;1.70;;;10.10;95.30;;;;;;5055249;28;20468;-36
2023/12/24 04:29:13;;;;;;;1.40;1.10;;;10.10;95.40;;;;;;5055023;28;20055;-37
2023/12/24 04:31:39;;;;;;;1.95;1.30;;;10.10;95.40;;;;;;5055185;28;20025;-37
2023/12/24 04:34:09;;;;;;;1.40;1.30;;;10.10;95.50;;;;;;5054990;28;20048;-36
2023/12/24 04:36:34;;;;;;;1.83;1.38;;;10.10;95.50;;;;;;5054946;28;20025;-37
2023/12/24 04:39:00;;;;;;;2.03;1.25;;;10.10;95.50;;;;;;5053582;28;20020;-37
2023/12/24 04:41:29;;;;;;;1.30;1.15;;;10.10;95.50;;;;;;5055004;28;20389;-38
2023/12/24 04:43:55;;;;;;;1.30;1.20;;;10.20;95.60;;;;;;5054979;28;20500;-37
2023/12/24 04:46:21;;;;;;;1.45;1.35;;;10.20;95.60;;;;;;5053623;28;20021;-36
2023/12/24 04:48:47;;;;;;;1.73;1.50;;;10.20;95.60;;;;;;5054790;28;20055;-38
2023/12/24 04:51:12;;;;;;;2.25;1.40;;;10.20;95.70;;;;;;5054610;28;20109;-37
2023/12/24 04:53:38;;;;;;;1.30;1.20;;;10.20;95.70;;;;;;5054829;28;20031;-38
2023/12/24 04:56:04;;;;;;;1.45;1.35;;;10.20;95.70;;;;;;5054542;28;20029;-37
2023/12/24 04:58:29;;;;;;;1.73;1.60;;;10.20;95.80;;;;;;5054801;28;20017;-42
2023/12/24 05:00:57;;;;;;;1.50;1.40;;;10.20;95.90;;;;;;5054467;28;20021;-37
2023/12/24 05:03:22;;;;;;;1.70;1.58;;;10.20;95.90;;;;;;5054668;28;20096;-38
2023/12/24 05:05:48;;;;;;;2.22;2.03;;;10.20;95.90;;;;;;5054663;28;20116;-37
2023/12/24 05:08:14;;;;;;;1.67;1.58;;;10.30;96.00;;;;;;5054465;28;20021;-38
2023/12/24 05:10:39;;;;;;;2.58;1.90;;;10.20;96.00;;;;;;5054415;28;20261;-38
2023/12/24 05:13:06;;;;;;;2.05;1.85;;;10.30;96.00;;;;;;5054413;28;20021;-35
2023/12/24 05:15:31;;;;;;;1.60;1.50;;;10.30;96.00;;;;;;5054284;28;20532;-37
2023/12/24 05:17:57;;;;;;;2.47;1.85;;;10.30;96.00;;;;;;5054250;28;20098;-38
2023/12/24 05:20:22;;;;;;;1.60;1.48;;;10.30;96.10;;;;;;5053973;28;20032;-39
2023/12/24 05:22:48;;;;;;;1.83;1.73;;;10.30;96.10;;;;;;5054189;28;20115;-36
2023/12/24 05:25:13;;;;;;;1.60;1.50;;;10.30;96.20;;;;;;5054185;28;20021;-38
2023/12/24 05:27:39;;;;;;;2.38;1.80;;;10.30;96.30;;;;;;5054378;28;20047;-40
2023/12/24 05:30:06;;;;;;;1.70;1.60;;;10.30;96.30;;;;;;5053970;28;20037;-37
2023/12/24 05:32:32;;;;;;;1.85;1.50;;;10.30;96.60;;;;;;5053648;28;20513;-38
2023/12/24 05:34:57;;;;;;;1.70;1.48;;;10.30;96.40;;;;;;5052968;28;20059;-37
2023/12/24 05:37:23;;;;;;;1.85;1.50;;;10.40;96.40;;;;;;5053964;28;20057;-38
2023/12/24 05:39:48;;;;;;;1.83;1.70;;;10.40;96.60;;;;;;5053799;28;20025;-38
2023/12/24 05:42:14;;;;;;;2.10;1.90;;;10.40;96.50;;;;;;5054203;28;20024;-38
2023/12/24 05:44:39;;;;;;;2.40;1.60;;;10.40;96.60;;;;;;5054019;28;20029;-39
2023/12/24 05:47:05;;;;;;;1.85;1.38;;;10.40;96.60;;;;;;5053734;28;20032;-38
2023/12/24 05:49:31;;;;;;;2.72;1.88;;;10.40;96.60;;;;;;5052204;28;20021;-38
2023/12/24 05:51:56;;;;;;;1.90;1.50;;;10.40;96.70;;;;;;5053515;28;20388;-38
2023/12/24 05:54:22;;;;;;;2.03;1.40;;;10.50;96.70;;;;;;5053732;28;20111;-37
2023/12/24 05:56:47;;;;;;;1.75;1.40;;;10.50;96.70;;;;;;5053323;28;20033;-37
2023/12/24 05:59:13;;;;;;;2.42;1.70;;;10.50;96.70;;;;;;5053372;28;20013;-38
2023/12/24 06:01:39;;;;;;;2.88;1.50;;;10.50;96.70;;;;;;5053437;28;20074;-39
2023/12/24 06:04:05;;;;;;;2.33;1.33;;;10.60;96.80;;;;;;5053306;28;20024;-37
2023/12/24 06:06:31;;;;;;;4.05;1.42;;;10.60;96.80;;;;;;5053233;28;20221;-38
2023/12/24 06:08:57;;;;;;;3.38;1.42;;;10.60;96.80;;;;;;5051884;28;20025;-39
2023/12/24 06:11:22;;;;;;;3.40;1.40;;;10.60;96.90;;;;;;5053357;28;20484;-38
2023/12/24 06:13:48;;;;;;;1.83;1.35;;;10.60;96.90;;;;;;5051754;28;20027;-37
2023/12/24 06:16:13;;;;;;;4.55;1.83;;;10.60;96.90;;;;;;5053115;28;20338;-37
2023/12/24 06:18:40;;;;;;;7.05;2.00;;;10.60;96.90;;;;;;5052968;28;20025;-44
2023/12/24 06:21:09;;;;;;;4.22;1.73;;;10.70;97.00;;;;;;5053169;28;20495;-36
2023/12/24 06:23:34;;;;;;;3.40;1.65;;;10.60;97.00;;;;;;5053280;28;20035;-37
2023/12/24 06:26:00;;;;;;;6.80;1.80;;;10.70;97.00;;;;;;5053065;28;20021;-37
2023/12/24 06:28:26;;;;;;;4.38;1.60;;;10.70;97.10;;;;;;5051623;28;20124;-37
2023/12/24 06:30:51;;;;;;;3.33;1.27;;;10.70;97.10;;;;;;5052886;28;20024;-39
2023/12/24 06:33:17;;;;;;;5.72;1.95;;;10.70;97.10;;;;;;5052731;28;20128;-39
2023/12/24 06:35:43;;;;;;;5.13;1.77;;;10.70;97.10;;;;;;5052820;28;20029;-38
2023/12/24 06:38:09;;;;;;;4.90;1.95;;;10.70;97.10;;;;;;5052724;28;20021;-38
2023/12/24 06:40:34;;;;;;;4.22;1.60;;;10.70;97.20;;;;;;5052593;28;20105;-38
2023/12/24 06:43:00;;;;;;;5.15;1.70;;;10.80;97.20;;;;;;5052739;28;20021;-39
2023/12/24 06:45:26;;;;;;;6.40;1.92;;;10.80;97.10;;;;;;5052584;28;20032;-38
2023/12/24 06:47:52;;;;;;;5.38;1.90;;;10.80;97.20;;;;;;5052870;28;20534;-38
2023/12/24 06:50:18;;;;;;;5.88;1.80;;;10.80;97.20;;;;;;5052312;28;20110;-39
2023/12/24 06:52:44;;;;;;;5.03;1.90;;;10.80;97.20;;;;;;5052475;28;20031;-37
2023/12/24 06:55:09;;;;;;;3.15;1.45;;;10.80;97.20;;;;;;5051127;28;20025;-39
2023/12/24 06:57:35;;;;;;;5.35;1.52;;;10.80;97.20;;;;;;5052312;28;20021;-46
2023/12/24 07:00:00;;;;;;;4.07;1.80;;;10.80;97.20;;;;;;5052289;28;20051;-40
2023/12/24 07:02:26;;;;;;;5.82;1.70;;;10.80;97.20;;;;;;5052218;28;20032;-38
2023/12/24 07:04:51;;;;;;;3.80;1.70;;;10.80;97.20;;;;;;5052686;28;20033;-38
2023/12/24 07:07:17;;;;;;;3.22;1.65;;;10.80;97.30;;;;;;5052281;28;20104;-44
2023/12/24 07:09:43;;;;;;;7.57;2.03;;;10.80;97.30;;;;;;5052431;28;20031;-39
2023/12/24 07:12:08;;;;;;;4.07;1.83;;;10.80;97.20;;;;;;5052169;28;20021;-40
2023/12/24 07:14:34;;;;;;;4.88;1.83;;;10.90;97.30;;;;;;5052156;28;20056;-38
2023/12/24 07:16:59;;;;;;;4.68;1.70;;;10.90;97.30;;;;;;5052452;28;20021;-39
2023/12/24 07:19:25;;;;;;;3.47;1.83;;;10.90;97.30;;;;;;5051893;28;20032;-37
2023/12/24 07:21:50;;;;;;;7.22;2.10;;;10.90;97.30;;;;;;5052037;28;20042;-40
2023/12/24 07:24:16;;;;;;;5.22;2.25;;;10.90;97.30;;;;;;5051730;28;20144;-37
2023/12/24 07:26:42;;;;;;;4.97;1.88;;;10.90;97.40;;;;;;5052221;28;20074;-37
2023/12/24 07:29:08;;;;;;;8.00;2.53;;;10.90;97.30;;;;;;5051788;28;20103;-39
2023/12/24 07:31:33;;;;;;;6.78;2.00;;;10.90;97.40;;;;;;5050577;28;20021;-39
2023/12/24 07:33:59;;;;;;;6.93;2.20;;;10.90;97.40;;;;;;5051745;28;20117;-39
2023/12/24 07:36:24;;;;;;;7.47;2.28;;;10.90;97.70;;;;;;5051726;28;20060;-38
2023/12/24 07:38:50;;;;;;;6.63;2.20;;;10.90;97.50;;;;;;5051815;28;20049;-36
2023/12/24 07:41:16;;;;;;;4.68;2.15;;;10.90;97.60;;;;;;5051554;28;20106;-38
2023/12/24 07:43:42;;;;;;;7.07;2.65;;;10.90;97.50;;;;;;5051946;28;20031;-38
2023/12/24 07:46:08;;;;;;;6.65;2.30;;;10.90;97.60;;;;;;5052053;28;20396;-39
2023/12/24 07:48:34;;;;;;;6.45;2.55;;;10.90;97.60;;;;;;5051872;28;20078;-38
2023/12/24 07:50:59;;;;;;;3.80;2.33;;;10.90;97.60;;;;;;5051490;28;20428;-39
2023/12/24 07:53:25;;;;;;;5.75;1.95;;;10.90;97.60;;;;;;5051818;28;20021;-37
2023/12/24 07:55:51;;;;;;;5.55;2.53;;;10.90;97.60;;;;;;5051288;28;20508;-39
2023/12/24 07:58:16;;;;;;;7.00;2.53;;;11.00;97.60;;;;;;5051221;28;20048;-37
2023/12/24 08:00:42;;;;;;;6.88;2.60;;;11.00;97.60;;;;;;5051310;28;20486;-40
2023/12/24 08:03:08;;;;;;;8.18;2.20;;;11.00;97.60;;;;;;5051454;28;20518;-40
2023/12/24 08:05:33;;;;;;;8.18;2.47;;;11.00;97.60;;;;;;5051419;28;20028;-38
2023/12/24 08:07:59;;;;;;;8.88;3.20;;;11.00;97.60;;;;;;5051368;28;20061;-39
2023/12/24 08:10:25;;;;;;;7.18;2.90;;;11.00;97.60;;;;;;5051630;28;20112;-39
2023/12/24 08:12:50;;;;;;;10.63;2.60;;;11.00;97.60;;;;;;5051375;28;20417;-41
2023/12/24 08:15:21;;;;;;;6.53;2.40;;;11.00;97.60;;;;;;5051548;28;20465;-39
2023/12/24 08:17:46;;;;;;;7.88;2.90;;;11.00;97.60;;;;;;5051414;28;20497;-38
2023/12/24 08:20:12;;;;;;;8.20;3.30;;;11.00;97.70;;;;;;5051198;28;20021;-41
2023/12/24 08:22:38;;;;;;;6.38;2.78;;;11.00;97.70;;;;;;5051135;28;20088;-42
2023/12/24 08:25:04;;;;;;;8.02;2.72;;;11.00;97.70;;;;;;5051466;28;20025;-38
2023/12/24 08:27:29;;;;;;;8.32;3.30;;;11.00;97.70;;;;;;5051083;28;20087;-41
2023/12/24 08:29:55;;;;;;;6.28;2.83;;;11.10;97.80;;;;;;5051208;28;20110;-38
2023/12/24 08:32:21;;;;;;;5.30;2.65;;;11.10;97.80;;;;;;5051242;28;20048;-39
2023/12/24 08:34:47;;;;;;;4.32;2.70;;;11.10;97.80;;;;;;5051318;28;20032;-43
2023/12/24 08:37:12;;;;;;;5.72;2.70;;;11.10;97.80;;;;;;5051171;28;20473;-38
2023/12/24 08:39:38;;;;;;;4.65;2.30;;;11.10;97.80;;;;;;5051432;28;20017;-39
2023/12/24 08:42:07;;;;;;;5.20;2.70;;;11.10;97.80;;;;;;5051070;28;20096;-39
2023/12/24 08:44:32;;;;;;;5.65;2.55;;;11.10;97.80;;;;;;5051142;28;20024;-38
2023/12/24 08:46:58;;;;;;;4.43;2.13;;;11.10;97.80;;;;;;5051018;28;20029;-40
2023/12/24 08:49:24;;;;;;;3.78;2.17;;;11.10;97.80;;;;;;5050992;28;20091;-38
2023/12/24 08:51:49;;;;;;;3.95;2.20;;;11.20;97.90;;;;;;5051034;28;20397;-40
2023/12/24 08:54:15;;;;;;;4.10;2.05;;;11.20;97.90;;;;;;5050879;28;20083;-40
2023/12/24 08:56:41;;;;;;;3.60;1.73;;;11.20;97.90;;;;;;5051050;28;20530;-38
2023/12/24 08:59:08;;;;;;;3.05;1.90;;;11.20;97.80;;;;;;5049625;28;20021;-38
2023/12/24 09:01:33;;;;;;;3.45;1.90;;;11.20;97.80;;;;;;5051117;28;20028;-38
2023/12/24 09:04:00;;;;;;;3.00;1.77;;;11.30;97.90;;;;;;5051246;28;20021;-39
2023/12/24 09:06:26;;;;;;;2.17;1.40;;;11.20;97.90;;;;;;5051097;28;20481;-38
2023/12/24 09:08:52;;;;;;;2.28;1.27;;;11.20;97.90;;;;;;5051026;28;20025;-34
2023/12/24 09:11:18;;;;;;;1.70;1.35;;;11.20;97.90;;;;;;5053739;28;20161;-40
2023/12/24 09:13:43;;;;;;;1.63;1.30;;;11.30;98.00;;;;;;5054652;28;20021;-40
2023/12/24 09:16:09;;;;;;;1.48;1.30;;;11.20;97.90;;;;;;5054644;28;20048;-39
2023/12/24 09:18:34;;;;;;;2.30;1.42;;;11.30;98.00;;;;;;5054244;28;20020;-39
2023/12/24 09:21:00;;;;;;;1.70;1.20;;;11.30;98.00;;;;;;5054257;28;20028;-39
2023/12/24 09:23:25;;;;;;;2.60;1.30;;;11.30;98.00;;;;;;5054106;28;20377;-36
2023/12/24 09:25:51;;;;;;;2.53;1.40;;;11.30;98.00;;;;;;5054195;28;20029;-40
2023/12/24 09:28:17;;;;;;;3.35;1.35;;;11.30;98.00;;;;;;5054653;28;20018;-40
2023/12/24 09:30:42;;;;;;;1.90;1.40;;;11.30;98.30;;;;;;5054379;28;20537;-41
2023/12/24 09:33:08;;;;;;;2.17;1.60;;;11.30;98.00;;;;;;5053736;28;20102;-39
2023/12/24 09:35:35;;;;;;;2.97;1.42;;;11.30;98.00;;;;;;5054363;28;20090;-39
2023/12/24 09:38:00;;;;;;;3.13;1.48;;;11.30;98.00;;;;;;5054146;28;20526;-40
2023/12/24 09:40:26;;;;;;;5.07;1.83;;;11.30;98.10;;;;;;5053879;28;20055;-39
2023/12/24 09:42:53;;;;;;;5.50;1.67;;;11.30;98.10;;;;;;5053974;28;20025;-37
2023/12/24 09:45:20;;;;;;;5.78;2.10;;;11.40;98.10;;;;;;5054002;28;20105;-39
2023/12/24 09:47:46;;;;;;;3.13;1.80;;;11.40;98.20;;;;;;5053772;28;20481;-39
2023/12/24 09:50:12;;;;;;;5.55;1.98;;;11.40;98.20;;;;;;5052211;28;20078;-40
2023/12/24 09:52:38;;;;;;;4.88;1.85;;;11.40;98.20;;;;;;5053990;28;20063;-39
2023/12/24 09:55:04;;;;;;;5.57;2.15;;;11.40;98.20;;;;;;5053550;28;20029;-38
2023/12/24 09:57:29;;;;;;;8.88;2.80;;;11.40;98.10;;;;;;5053692;28;20473;-40
2023/12/24 09:59:55;;;;;;;10.10;2.50;;;11.40;98.10;;;;;;5053426;28;20056;-40
2023/12/24 10:02:20;;;;;;;8.95;2.70;;;11.50;98.20;;;;;;5053443;28;20021;-40
2023/12/24 10:04:46;;;;;;;8.70;2.97;;;11.40;98.20;;;;;;5053270;28;20033;-38
2023/12/24 10:07:12;;;;;;;13.02;3.88;;;11.50;98.20;;;;;;5053764;28;20025;-38
2023/12/24 10:09:41;;;;;;;9.77;3.30;;;11.50;98.20;;;;;;5053179;28;20496;-39
2023/12/24 10:12:09;;;;;;;11.02;3.00;;;11.50;98.20;;;;;;5053732;28;20048;-40
2023/12/24 10:14:35;;;;;;;11.63;3.25;;;11.50;98.20;;;;;;5051811;28;20033;-39
2023/12/24 10:17:03;;;;;;;12.85;3.40;;;11.50;98.20;;;;;;5053362;28;20074;-39
2023/12/24 10:19:29;;;;;;;9.80;3.60;;;11.60;98.20;;;;;;5053090;28;20025;-39
2023/12/24 10:22:05;;;;;;;18.75;4.07;;;11.60;98.20;;;;;;5053184;28;20105;-39
2023/12/24 10:24:35;;;;;;;18.30;4.20;;;11.60;98.20;;;;;;5053292;28;20435;-41
2023/12/24 10:27:09;;;;;;;18.73;4.45;;;11.60;98.10;;;;;;5053321;28;20500;-39
2023/12/24 10:29:39;;;;;;;17.13;4.00;;;11.60;98.10;;;;;;5053215;28;20496;-41
2023/12/24 10:32:05;;;;;;;28.98;5.95;;;11.60;98.10;;;;;;5053031;28;20044;-40
2023/12/24 10:34:33;;;;;;;29.90;5.72;;;11.70;98.20;;;;;;5052738;28;20056;-40
2023/12/24 10:37:15;;;;;;;36.00;7.32;;;11.70;98.20;;;;;;5052752;28;20029;-40
2023/12/24 10:39:41;;;;;;;35.40;6.65;;;11.70;98.20;;;;;;5052929;28;20045;-39
2023/12/24 10:42:06;;;;;;;38.42;6.80;;;11.70;98.20;;;;;;5052625;28;20489;-39
2023/12/24 10:44:32;;;;;;;30.98;6.13;;;11.70;98.20;;;;;;5052678;28;20017;-41
2023/12/24 10:46:57;;;;;;;22.40;4.97;;;11.70;98.20;;;;;;5052822;28;20055;-40
2023/12/24 10:49:23;;;;;;;32.53;6.05;;;11.70;98.20;;;;;;5052435;28;20782;-39
2023/12/24 10:51:48;;;;;;;32.30;6.00;;;11.70;98.20;;;;;;5052575;28;20029;-39
2023/12/24 10:54:15;;;;;;;23.70;5.28;;;11.80;98.20;;;;;;5052834;28;20033;-40
2023/12/24 10:57:02;;;;;;;29.75;6.38;;;11.80;98.20;;;;;;5052162;28;20079;-38
2023/12/24 10:59:51;;;;;;;23.13;5.53;;;11.80;98.10;;;;;;5052287;28;20037;-40
2023/12/24 11:02:16;;;;;;;20.27;5.00;;;11.80;98.10;;;;;;5052125;28;20021;-39
2023/12/24 11:04:45;;;;;;;22.02;5.50;;;11.80;98.10;;;;;;5052322;28;20017;-38
2023/12/24 11:07:32;;;;;;;25.40;5.55;;;11.90;98.10;;;;;;5052180;28;20025;-41
2023/12/24 11:10:00;;;;;;;25.58;5.32;;;11.90;98.00;;;;;;5051899;28;20037;-45
2023/12/24 11:12:33;;;;;;;22.42;5.05;;;11.90;98.00;;;;;;5052262;28;20116;-38
2023/12/24 11:14:59;;;;;;;21.23;5.43;;;11.90;98.00;;;;;;5052459;28;20031;-39
2023/12/24 11:17:34;;;;;;;20.33;4.88;;;11.90;97.90;;;;;;5052040;28;20452;-39
2023/12/24 11:20:20;;;;;;;17.83;4.82;;;11.90;97.90;;;;;;5052359;28;20457;-38
2023/12/24 11:23:04;;;;;;;21.00;5.28;;;11.90;97.80;;;;;;5052267;28;20056;-37
2023/12/24 11:25:39;;;;;;;18.95;5.38;;;11.90;97.80;;;;;;5052110;28;20040;-41
2023/12/24 11:28:07;;;;;;;22.40;5.45;;;11.90;97.80;;;;;;5050919;28;20107;-41
2023/12/24 11:30:51;;;;;;;18.27;5.13;;;11.90;97.80;;;;;;5051801;28;20457;-36
2023/12/24 11:33:32;;;;;;;19.00;4.65;;;11.90;97.80;;;;;;5050850;28;20076;-39
2023/12/24 11:36:07;;;;;;;16.77;4.60;;;12.00;97.80;;;;;;5051607;28;20098;-39
2023/12/24 11:38:33;;;;;;;23.77;4.95;;;12.00;97.80;;;;;;5052131;28;20389;-46
2023/12/24 11:41:12;;;;;;;14.98;4.05;;;11.90;97.80;;;;;;5051526;28;20036;-48
2023/12/24 11:43:40;;;;;;;21.92;4.95;;;12.00;97.80;;;;;;5051766;28;20028;-44
2023/12/24 11:46:06;;;;;;;17.55;4.85;;;12.00;97.80;;;;;;5052124;28;20499;-45
2023/12/24 11:48:35;;;;;;;17.42;4.70;;;12.00;97.80;;;;;;5051943;28;20032;-41
2023/12/24 11:51:04;;;;;;;21.27;5.47;;;12.00;97.80;;;;;;5051961;28;20033;-40
2023/12/24 11:53:34;;;;;;;13.82;5.40;;;12.00;97.80;;;;;;5050730;28;20025;-40
2023/12/24 11:56:20;;;;;;;14.40;6.07;;;12.10;97.80;;;;;;5051531;28;20021;-40
2023/12/24 11:58:48;;;;;;;12.88;5.47;;;12.10;97.80;;;;;;5051479;28;20013;-43
2023/12/24 12:01:19;;;;;;;11.98;5.57;;;12.10;97.80;;;;;;5051345;28;20067;-40
2023/12/24 12:03:44;;;;;;;11.82;5.60;;;12.10;97.80;;;;;;5051470;28;20457;-40
2023/12/24 12:06:10;;;;;;;8.07;4.97;;;12.10;97.80;;;;;;5049910;28;20025;-40
2023/12/24 12:08:35;;;;;;;11.20;5.57;;;12.10;97.80;;;;;;5051301;28;20075;-40
2023/12/24 12:11:01;;;;;;;8.93;5.80;;;12.10;97.80;;;;;;5051315;28;20029;-43
2023/12/24 12:13:27;;;;;;;8.57;5.40;;;12.10;97.80;;;;;;5051510;28;20462;-39
2023/12/24 12:15:53;;;;;;;10.60;6.15;;;12.10;97.90;;;;;;5051468;28;20028;-40
2023/12/24 12:18:19;;;;;;;10.32;5.88;;;12.10;97.90;;;;;;5051598;28;20025;-39
2023/12/24 12:20:45;;;;;;;9.48;5.57;;;12.10;97.90;;;;;;5051167;28;20107;-39
2023/12/24 12:23:12;;;;;;;10.68;5.65;;;12.10;97.90;;;;;;5051243;28;20358;-42
2023/12/24 12:25:38;;;;;;;9.63;5.00;;;12.10;97.90;;;;;;5051687;28;20497;-40
2023/12/24 12:28:04;;;;;;;11.65;5.70;;;12.10;97.90;;;;;;5051219;28;20025;-40
2023/12/24 12:30:30;;;;;;;8.05;5.38;;;12.10;98.00;;;;;;5051428;28;20484;-41
2023/12/24 12:32:55;;;;;;;7.93;5.05;;;12.10;98.00;;;;;;5050990;28;20052;-40
2023/12/24 12:35:21;;;;;;;6.75;3.65;;;12.20;98.10;;;;;;5051269;28;20033;-41
2023/12/24 12:37:46;;;;;;;9.80;4.97;;;12.10;98.00;;;;;;5051205;28;20128;-37
2023/12/24 12:40:12;;;;;;;6.70;4.50;;;12.20;98.10;;;;;;5051048;28;20021;-41
2023/12/24 12:42:37;;;;;;;10.88;4.85;;;12.10;98.10;;;;;;5051018;28;20028;-40